createdAt,value
2022-10-14T00:01:17.461Z,6.89
2022-10-14T00:04:06.024Z,6.92
2022-10-14T00:06:34.250Z,6.94
2022-10-14T00:09:06.038Z,6.97
2022-10-14T00:11:34.437Z,6.98
2022-10-14T00:14:10.650Z,6.94
2022-10-14T00:16:40.085Z,6.85
2022-10-14T00:19:10.836Z,6.80
2022-10-14T00:21:39.552Z,6.77
2022-10-14T00:24:11.266Z,6.82
2022-10-14T00:26:40.049Z,6.84
2022-10-14T00:29:09.974Z,6.86
2022-10-14T00:31:37.660Z,6.82
2022-10-14T00:34:05.304Z,6.75
2022-10-14T00:36:34.326Z,6.70
2022-10-14T00:39:01.987Z,6.67
2022-10-14T00:41:31.746Z,6.63
2022-10-14T00:43:59.440Z,6.53
2022-10-14T00:46:28.922Z,6.47
2022-10-14T00:49:01.808Z,6.46
2022-10-14T00:51:29.573Z,6.48
2022-10-14T00:53:57.417Z,6.46
2022-10-14T00:56:27.352Z,6.43
2022-10-14T00:58:55.615Z,6.40
2022-10-14T01:01:23.588Z,6.36
2022-10-14T01:03:51.284Z,6.27
2022-10-14T01:06:24.801Z,6.23
2022-10-14T01:09:00.216Z,6.27
2022-10-14T01:11:38.278Z,6.29
2022-10-14T01:14:15.110Z,6.28
2022-10-14T01:16:57.713Z,6.22
2022-10-14T01:19:37.676Z,6.20
2022-10-14T01:22:18.707Z,6.19
2022-10-14T01:25:02.029Z,6.21
2022-10-14T01:27:49.613Z,6.26
2022-10-14T01:30:17.616Z,6.30
2022-10-14T01:32:45.352Z,6.28
2022-10-14T01:35:31.493Z,6.24
2022-10-14T01:38:02.242Z,6.22
2022-10-14T01:40:35.951Z,6.18
2022-10-14T01:43:04.625Z,6.15
2022-10-14T01:45:34.475Z,6.11
2022-10-14T01:48:03.541Z,6.08
2022-10-14T01:50:31.930Z,6.14
2022-10-14T01:53:03.516Z,6.20
2022-10-14T01:55:34.129Z,6.28
2022-10-14T01:58:02.621Z,6.35
2022-10-14T02:00:30.524Z,6.34
2022-10-14T02:03:08.525Z,6.38
2022-10-14T02:05:44.434Z,6.48
2022-10-14T02:08:18.429Z,6.52
2022-10-14T02:11:01.714Z,6.56
2022-10-14T02:13:48.892Z,6.59
2022-10-14T02:16:27.141Z,6.64
2022-10-14T02:19:01.190Z,6.74
2022-10-14T02:21:48.125Z,6.81
2022-10-14T02:24:20.480Z,6.87
2022-10-14T02:26:49.702Z,6.90
2022-10-14T02:29:22.234Z,6.92
2022-10-14T02:31:54.848Z,6.91
2022-10-14T02:34:24.250Z,6.93
2022-10-14T02:36:53.529Z,6.96
2022-10-14T02:39:27.317Z,7.05
2022-10-14T02:41:55.062Z,7.09
2022-10-14T02:44:22.970Z,7.12
2022-10-14T02:46:50.729Z,7.13
2022-10-14T02:49:18.522Z,7.14
2022-10-14T02:51:46.221Z,7.18
2022-10-14T02:54:13.934Z,7.15
2022-10-14T02:56:42.627Z,7.06
2022-10-14T02:59:10.300Z,6.97
2022-10-14T03:01:39.120Z,6.97
2022-10-14T03:04:07.797Z,6.97
2022-10-14T03:06:37.136Z,6.95
2022-10-14T03:09:05.159Z,6.91
2022-10-14T03:11:35.106Z,6.86
2022-10-14T03:14:05.514Z,6.86
2022-10-14T03:16:33.355Z,6.80
2022-10-14T03:19:01.239Z,6.78
2022-10-14T03:21:41.457Z,6.74
2022-10-14T03:24:13.981Z,6.70
2022-10-14T03:26:42.312Z,6.66
2022-10-14T03:29:10.030Z,6.63
2022-10-14T03:32:00.662Z,6.56
2022-10-14T03:34:32.919Z,6.54
2022-10-14T03:37:05.956Z,6.54
2022-10-14T03:39:35.206Z,6.51
2022-10-14T03:42:05.738Z,6.49
2022-10-14T03:44:40.280Z,6.46
2022-10-14T03:47:17.464Z,6.43
2022-10-14T03:49:45.533Z,6.46
2022-10-14T03:52:19.988Z,6.46
2022-10-14T03:54:56.508Z,6.47
2022-10-14T03:57:24.852Z,6.47
2022-10-14T03:59:54.904Z,6.43
2022-10-14T04:02:24.054Z,6.44
2022-10-14T04:05:00.638Z,6.49
2022-10-14T04:07:29.290Z,6.48
2022-10-14T04:09:58.260Z,6.44
2022-10-14T04:12:26.429Z,6.42
2022-10-14T04:15:00.538Z,6.39
2022-10-14T04:17:33.184Z,6.41
2022-10-14T04:20:03.846Z,6.42
2022-10-14T04:22:33.345Z,6.42
2022-10-14T04:25:01.380Z,6.43
2022-10-14T04:27:29.151Z,6.46
2022-10-14T04:30:03.976Z,6.49
2022-10-14T04:32:39.958Z,6.53
2022-10-14T04:35:09.666Z,6.54
2022-10-14T04:37:38.343Z,6.58
2022-10-14T04:40:20.634Z,6.63
2022-10-14T04:42:48.467Z,6.62
2022-10-14T04:45:21.248Z,6.60
2022-10-14T04:47:54.679Z,6.59
2022-10-14T04:50:24.146Z,6.59
2022-10-14T04:53:13.538Z,6.54
2022-10-14T04:55:53.060Z,6.56
2022-10-14T04:58:20.766Z,6.56
2022-10-14T05:00:48.866Z,6.52
2022-10-14T05:03:35.599Z,6.48
2022-10-14T05:06:03.635Z,6.47
2022-10-14T05:08:31.297Z,6.45
2022-10-14T05:11:01.089Z,6.42
2022-10-14T05:13:37.261Z,6.41
2022-10-14T05:16:08.641Z,6.41
2022-10-14T05:18:36.508Z,6.44
2022-10-14T05:21:09.005Z,6.44
2022-10-14T05:23:51.960Z,6.46
2022-10-14T05:26:19.685Z,6.48
2022-10-14T05:28:48.117Z,6.51
2022-10-14T05:31:17.214Z,6.55
2022-10-14T05:33:51.059Z,6.61
2022-10-14T05:36:19.033Z,6.67
2022-10-14T05:38:48.727Z,6.71
2022-10-14T05:41:19.546Z,6.84
2022-10-14T05:43:47.336Z,6.88
2022-10-14T05:46:15.073Z,6.91
2022-10-14T05:48:46.140Z,6.96
2022-10-14T05:51:15.556Z,6.97
2022-10-14T05:53:43.693Z,6.98
2022-10-14T05:56:15.391Z,7.04
2022-10-14T05:58:43.003Z,7.08
2022-10-14T06:01:11.107Z,7.09
2022-10-14T06:03:41.253Z,7.16
2022-10-14T06:06:14.319Z,7.21
2022-10-14T06:08:42.488Z,7.25
2022-10-14T06:11:11.024Z,7.26
2022-10-14T06:13:39.344Z,7.26
2022-10-14T06:16:09.148Z,7.26
2022-10-14T06:18:37.158Z,7.26
2022-10-14T06:21:05.824Z,7.27
2022-10-14T06:23:35.285Z,7.30
2022-10-14T06:26:09.159Z,7.30
2022-10-14T06:28:37.445Z,7.33
2022-10-14T06:31:06.602Z,7.41
2022-10-14T06:33:34.550Z,7.48
2022-10-14T06:36:03.082Z,7.60
2022-10-14T06:38:31.542Z,7.65
2022-10-14T06:40:59.268Z,7.68
2022-10-14T06:43:28.202Z,7.74
2022-10-14T06:45:59.650Z,7.81
2022-10-14T06:48:27.294Z,7.84
2022-10-14T06:50:55.031Z,7.88
2022-10-14T06:53:22.646Z,7.92
2022-10-14T06:55:56.722Z,8.04
2022-10-14T06:58:24.445Z,8.13
2022-10-14T07:00:52.138Z,8.16
2022-10-14T07:03:19.885Z,8.20
2022-10-14T07:05:47.738Z,8.28
2022-10-14T07:08:15.805Z,8.37
2022-10-14T07:10:43.649Z,8.46
2022-10-14T07:13:11.345Z,8.59
2022-10-14T07:15:39.105Z,8.71
2022-10-14T07:18:07.129Z,8.81
2022-10-14T07:20:35.128Z,8.93
2022-10-14T07:23:02.790Z,8.94
2022-10-14T07:25:30.426Z,8.99
2022-10-14T07:27:58.138Z,9.09
2022-10-14T07:30:26.155Z,9.15
2022-10-14T07:32:53.953Z,9.19
2022-10-14T07:35:21.717Z,9.15
2022-10-14T07:37:50.780Z,9.12
2022-10-14T07:40:18.600Z,9.14
2022-10-14T07:42:46.947Z,9.17
2022-10-14T07:45:16.649Z,9.28
2022-10-14T07:47:45.208Z,9.44
2022-10-14T07:50:13.008Z,9.61
2022-10-14T07:52:40.954Z,9.73
2022-10-14T07:55:08.690Z,9.83
2022-10-14T07:57:36.334Z,9.94
2022-10-14T08:00:04.481Z,10.07
2022-10-14T08:02:39.786Z,10.19
2022-10-14T08:05:32.985Z,10.29
2022-10-14T08:07:55.354Z,10.37
2022-10-14T08:10:23.039Z,10.43
2022-10-14T08:12:52.050Z,10.50
2022-10-14T08:15:19.757Z,10.62
2022-10-14T08:17:47.726Z,10.75
2022-10-14T08:20:15.406Z,10.89
2022-10-14T08:22:43.033Z,11.01
2022-10-14T08:25:10.725Z,11.12
2022-10-14T08:27:38.592Z,11.25
2022-10-14T08:30:10.267Z,11.39
2022-10-14T08:32:39.031Z,11.56
2022-10-14T08:35:07.264Z,11.69
2022-10-14T08:37:34.939Z,11.72
2022-10-14T08:40:02.702Z,11.77
2022-10-14T08:42:33.463Z,11.82
2022-10-14T08:45:10.352Z,11.83
2022-10-14T08:47:44.274Z,11.85
2022-10-14T08:50:17.907Z,11.90
2022-10-14T08:52:50.122Z,11.94
2022-10-14T08:55:30.340Z,12.00
2022-10-14T08:58:01.074Z,12.04
2022-10-14T09:00:31.304Z,12.07
2022-10-14T09:02:59.863Z,12.12
2022-10-14T09:05:27.627Z,12.20
2022-10-14T09:07:56.764Z,12.25
2022-10-14T09:10:31.848Z,12.35
2022-10-14T09:13:04.245Z,12.41
2022-10-14T09:15:35.193Z,12.47
2022-10-14T09:18:06.024Z,12.52
2022-10-14T09:20:34.053Z,12.59
2022-10-14T09:23:05.099Z,12.71
2022-10-14T09:25:34.022Z,12.84
2022-10-14T09:28:02.022Z,13.03
2022-10-14T09:30:33.619Z,13.22
2022-10-14T09:33:01.405Z,13.43
2022-10-14T09:35:35.145Z,13.62
2022-10-14T09:38:02.937Z,13.74
2022-10-14T09:40:32.446Z,13.90
2022-10-14T09:43:09.581Z,14.07
2022-10-14T09:45:46.590Z,14.23
2022-10-14T09:48:17.215Z,14.36
2022-10-14T09:50:55.713Z,14.47
2022-10-14T09:53:34.452Z,14.56
2022-10-14T09:56:06.219Z,14.66
2022-10-14T09:58:42.564Z,14.82
2022-10-14T10:01:34.473Z,14.96
2022-10-14T10:04:22.114Z,15.10
2022-10-14T10:06:53.835Z,15.25
2022-10-14T10:09:22.050Z,15.44
2022-10-14T10:11:49.727Z,15.62
2022-10-14T10:14:23.201Z,15.73
2022-10-14T10:16:52.610Z,15.80
2022-10-14T10:19:31.364Z,15.87
2022-10-14T10:24:52.559Z,15.97
2022-10-14T10:27:21.766Z,15.96
2022-10-14T10:29:49.725Z,15.91
2022-10-14T10:32:24.791Z,15.89
2022-10-14T10:34:56.669Z,15.89
2022-10-14T10:37:41.936Z,15.89
2022-10-14T10:40:09.699Z,15.88
2022-10-14T10:42:39.834Z,15.87
2022-10-14T10:45:16.315Z,15.92
2022-10-14T10:47:50.838Z,16.02
2022-10-14T10:50:18.506Z,16.13
2022-10-14T10:52:52.176Z,16.22
2022-10-14T10:55:19.864Z,16.32
2022-10-14T10:57:59.082Z,16.47
2022-10-14T11:00:27.176Z,16.59
2022-10-14T11:02:59.324Z,16.68
2022-10-14T11:05:50.695Z,16.79
2022-10-14T11:08:40.156Z,16.85
2022-10-14T11:11:35.402Z,16.92
2022-10-14T11:14:21.812Z,17.04
2022-10-14T11:17:03.203Z,17.11
2022-10-14T11:19:40.056Z,17.16
2022-10-14T11:22:19.420Z,17.25
2022-10-14T11:25:03.331Z,17.33
2022-10-14T11:27:50.278Z,17.35
2022-10-14T11:30:17.997Z,17.39
2022-10-14T11:33:08.759Z,17.45
2022-10-14T11:35:59.427Z,17.40
2022-10-14T11:38:39.160Z,17.43
2022-10-14T11:41:12.792Z,17.45
2022-10-14T11:43:52.458Z,17.52
2022-10-14T11:46:21.474Z,17.60
2022-10-14T11:48:52.757Z,17.62
2022-10-14T11:51:23.228Z,17.67
2022-10-14T11:53:56.981Z,17.71
2022-10-14T11:56:30.582Z,17.69
2022-10-14T11:59:01.305Z,17.67
2022-10-14T12:01:34.211Z,17.66
2022-10-14T12:04:11.934Z,17.66
2022-10-14T12:06:52.011Z,17.67
2022-10-14T12:09:19.635Z,17.75
2022-10-14T12:11:51.445Z,17.78
2022-10-14T12:14:21.517Z,17.83
2022-10-14T12:16:49.912Z,17.88
2022-10-14T12:19:22.567Z,17.88
2022-10-14T12:21:52.682Z,17.88
2022-10-14T12:24:27.402Z,17.85
2022-10-14T12:27:00.906Z,17.78
2022-10-14T12:29:31.641Z,17.77
2022-10-14T12:32:05.455Z,17.76
2022-10-14T12:34:38.545Z,17.73
2022-10-14T12:37:28.829Z,17.72
2022-10-14T12:40:02.392Z,17.76
2022-10-14T12:42:32.247Z,17.77
2022-10-14T12:45:01.802Z,17.69
2022-10-14T12:47:37.543Z,17.64
2022-10-14T12:50:26.032Z,17.61
2022-10-14T12:52:59.245Z,17.59
2022-10-14T12:55:30.190Z,17.54
2022-10-14T12:58:02.661Z,17.52
2022-10-14T13:00:38.861Z,17.50
2022-10-14T13:03:17.817Z,17.47
2022-10-14T13:05:45.986Z,17.41
2022-10-14T13:08:16.646Z,17.34
2022-10-14T13:10:47.138Z,17.21
2022-10-14T13:13:34.494Z,17.14
2022-10-14T13:16:02.176Z,17.10
2022-10-14T13:18:32.913Z,17.15
2022-10-14T13:21:00.639Z,17.22
2022-10-14T13:23:31.950Z,17.29
2022-10-14T13:26:08.903Z,17.36
2022-10-14T13:28:45.008Z,17.40
2022-10-14T13:31:16.316Z,17.44
2022-10-14T13:33:47.762Z,17.46
2022-10-14T13:36:19.027Z,17.38
2022-10-14T13:38:51.887Z,17.34
2022-10-14T13:41:30.843Z,17.29
2022-10-14T13:44:00.868Z,17.22
2022-10-14T13:46:31.594Z,17.20
2022-10-14T13:49:00.110Z,17.21
2022-10-14T13:51:37.559Z,17.15
2022-10-14T13:54:17.165Z,17.06
2022-10-14T13:57:19.842Z,17.03
2022-10-14T14:00:11.584Z,17.00
2022-10-14T14:02:42.749Z,16.97
2022-10-14T14:05:16.256Z,16.95
2022-10-14T14:10:38.924Z,17.02
2022-10-14T14:13:12.021Z,17.02
2022-10-14T14:15:40.609Z,17.00
2022-10-14T14:18:24.882Z,16.98
2022-10-14T14:20:58.153Z,16.99
2022-10-14T14:23:26.347Z,17.01
2022-10-14T14:26:17.946Z,16.99
2022-10-14T14:28:44.988Z,16.95
2022-10-14T14:31:15.765Z,16.90
2022-10-14T14:33:44.981Z,16.88
2022-10-14T14:36:27.290Z,16.81
2022-10-14T14:39:02.342Z,16.76
2022-10-14T14:41:30.981Z,16.72
2022-10-14T14:46:52.092Z,16.71
2022-10-14T14:49:23.455Z,16.76
2022-10-14T14:51:51.894Z,16.77
2022-10-14T14:54:21.052Z,16.72
2022-10-14T14:56:50.500Z,16.64
2022-10-14T14:59:18.159Z,16.57
2022-10-14T15:01:46.000Z,16.48
2022-10-14T15:04:18.706Z,16.34
2022-10-14T15:06:58.402Z,16.24
2022-10-14T15:09:35.640Z,16.16
2022-10-14T15:12:05.269Z,16.07
2022-10-14T15:14:45.005Z,15.98
2022-10-14T15:17:27.771Z,15.91
2022-10-14T15:19:57.280Z,15.84
2022-10-14T15:22:33.901Z,15.78
2022-10-14T15:25:02.812Z,15.73
2022-10-14T15:27:34.995Z,15.69
2022-10-14T15:30:21.517Z,15.65
2022-10-14T15:32:50.043Z,15.56
2022-10-14T15:35:19.530Z,15.53
2022-10-14T15:37:47.247Z,15.48
2022-10-14T15:40:19.168Z,15.44
2022-10-14T15:42:47.582Z,15.38
2022-10-14T15:45:15.719Z,15.36
2022-10-14T15:47:43.479Z,15.35
2022-10-14T15:50:19.345Z,15.32
2022-10-14T15:52:54.071Z,15.26
2022-10-14T15:55:30.021Z,15.22
2022-10-14T15:57:59.445Z,15.16
2022-10-14T16:00:27.136Z,15.10
2022-10-14T16:02:58.683Z,15.05
2022-10-14T16:05:29.086Z,14.97
2022-10-14T16:07:57.565Z,14.85
2022-10-14T16:10:28.137Z,14.74
2022-10-14T16:12:58.369Z,14.65
2022-10-14T16:15:33.055Z,14.58
2022-10-14T16:18:00.917Z,14.52
2022-10-14T16:20:30.852Z,14.45
2022-10-14T16:22:58.770Z,14.39
2022-10-14T16:25:33.727Z,14.30
2022-10-14T16:28:01.705Z,14.24
2022-10-14T16:30:29.396Z,14.19
2022-10-14T16:32:57.100Z,14.14
2022-10-14T16:35:24.740Z,14.08
2022-10-14T16:37:53.272Z,13.99
2022-10-14T16:40:21.329Z,13.91
2022-10-14T16:42:49.213Z,13.84
2022-10-14T16:45:17.695Z,13.79
2022-10-14T16:47:45.472Z,13.75
2022-10-14T16:50:13.284Z,13.69
2022-10-14T16:53:03.539Z,13.64
2022-10-14T16:55:34.523Z,13.57
2022-10-14T16:58:02.308Z,13.53
2022-10-14T17:00:29.994Z,13.51
2022-10-14T17:02:57.690Z,13.51
2022-10-14T17:05:27.059Z,13.54
2022-10-14T17:07:54.776Z,13.59
2022-10-14T17:10:22.573Z,13.59
2022-10-14T17:12:50.245Z,13.57
2022-10-14T17:15:18.107Z,13.55
2022-10-14T17:17:46.406Z,13.51
2022-10-14T17:20:14.118Z,13.40
2022-10-14T17:22:43.042Z,13.27
2022-10-14T17:25:10.705Z,13.14
2022-10-14T17:27:38.394Z,13.03
2022-10-14T17:30:06.536Z,12.87
2022-10-14T17:32:34.749Z,12.73
2022-10-14T17:35:03.608Z,12.59
2022-10-14T17:37:31.281Z,12.50
2022-10-14T17:39:58.893Z,12.41
2022-10-14T17:42:26.586Z,12.35
2022-10-14T17:44:56.279Z,12.31
2022-10-14T17:47:24.095Z,12.27
2022-10-14T17:49:52.242Z,12.19
2022-10-14T17:52:19.967Z,12.15
2022-10-14T17:54:48.190Z,12.07
2022-10-14T17:57:15.800Z,12.02
2022-10-14T17:59:43.464Z,11.98
2022-10-14T18:02:16.564Z,11.98
2022-10-14T18:04:44.263Z,11.95
2022-10-14T18:07:12.147Z,11.98
2022-10-14T18:09:39.818Z,12.03
2022-10-14T18:12:09.918Z,12.04
2022-10-14T18:14:38.670Z,12.00
2022-10-14T18:17:06.348Z,11.94
2022-10-14T18:19:35.126Z,11.88
2022-10-14T18:22:03.840Z,11.79
2022-10-14T18:24:32.412Z,11.69
2022-10-14T18:27:00.037Z,11.60
2022-10-14T18:29:27.737Z,11.50
2022-10-14T18:31:55.440Z,11.44
2022-10-14T18:34:25.028Z,11.43
2022-10-14T18:36:52.696Z,11.40
2022-10-14T18:39:20.648Z,11.42
2022-10-14T18:41:48.810Z,11.44
2022-10-14T18:44:16.549Z,11.43
2022-10-14T18:46:44.207Z,11.43
2022-10-14T18:49:11.874Z,11.42
2022-10-14T18:51:40.745Z,11.37
2022-10-14T18:54:11.329Z,11.31
2022-10-14T18:56:39.052Z,11.30
2022-10-14T18:59:18.112Z,11.34
2022-10-14T19:01:47.389Z,11.38
2022-10-14T19:04:15.930Z,11.40
2022-10-14T19:06:48.965Z,11.40
2022-10-14T19:09:20.964Z,11.36
2022-10-14T19:11:52.149Z,11.30
2022-10-14T19:14:21.023Z,11.33
2022-10-14T19:16:49.874Z,11.33
2022-10-14T19:19:19.771Z,11.33
2022-10-14T19:21:51.022Z,11.32
2022-10-14T19:24:18.751Z,11.30
2022-10-14T19:26:47.463Z,11.22
2022-10-14T19:29:15.626Z,11.10
2022-10-14T19:31:44.152Z,11.03
2022-10-14T19:34:13.773Z,10.94
2022-10-14T19:36:41.655Z,10.88
2022-10-14T19:39:11.675Z,10.83
2022-10-14T19:41:43.282Z,10.78
2022-10-14T19:44:12.130Z,10.70
2022-10-14T19:46:40.416Z,10.59
2022-10-14T19:49:10.994Z,10.51
2022-10-14T19:51:38.708Z,10.44
2022-10-14T19:54:06.355Z,10.31
2022-10-14T19:56:34.001Z,10.15
2022-10-14T19:59:01.977Z,10.08
2022-10-14T20:01:30.705Z,9.99
2022-10-14T20:04:00.171Z,9.88
2022-10-14T20:06:31.747Z,9.77
2022-10-14T20:08:59.770Z,9.76
2022-10-14T20:11:29.557Z,9.75
2022-10-14T20:13:57.710Z,9.71
2022-10-14T20:16:27.071Z,9.74
2022-10-14T20:18:56.110Z,9.74
2022-10-14T20:21:24.427Z,9.77
2022-10-14T20:23:52.082Z,9.78
2022-10-14T20:26:21.020Z,9.74
2022-10-14T20:28:50.070Z,9.67
2022-10-14T20:31:19.508Z,9.67
2022-10-14T20:33:47.149Z,9.62
2022-10-14T20:36:17.084Z,9.52
2022-10-14T20:38:45.519Z,9.47
2022-10-14T20:41:14.598Z,9.39
2022-10-14T20:43:43.329Z,9.37
2022-10-14T20:46:11.494Z,9.33
2022-10-14T20:48:39.295Z,9.22
2022-10-14T20:51:08.187Z,9.17
2022-10-14T20:53:35.974Z,9.13
2022-10-14T20:56:07.982Z,9.07
2022-10-14T20:58:35.683Z,8.98
2022-10-14T21:01:08.902Z,8.90
2022-10-14T21:03:36.974Z,8.79
2022-10-14T21:06:05.944Z,8.71
2022-10-14T21:08:33.642Z,8.75
2022-10-14T21:11:02.156Z,8.77
2022-10-14T21:13:30.324Z,8.71
2022-10-14T21:15:58.006Z,8.64
2022-10-14T21:18:25.763Z,8.59
2022-10-14T21:23:26.154Z,8.52
2022-10-14T21:25:55.632Z,8.47
2022-10-14T21:28:23.714Z,8.49
2022-10-14T21:30:51.424Z,8.50
2022-10-14T21:33:19.033Z,8.52
2022-10-14T21:35:46.727Z,8.52
2022-10-14T21:38:14.485Z,8.59
2022-10-14T21:40:42.171Z,8.60
2022-10-14T21:43:09.822Z,8.62
2022-10-14T21:45:37.465Z,8.65
2022-10-14T21:48:05.292Z,8.65
2022-10-14T21:50:33.013Z,8.67
2022-10-14T21:53:00.678Z,8.70
2022-10-14T21:55:28.294Z,8.75
2022-10-14T21:57:57.387Z,8.82
2022-10-14T22:00:25.038Z,8.79
2022-10-14T22:02:53.847Z,8.73
2022-10-14T22:05:21.600Z,8.63
2022-10-14T22:07:49.264Z,8.55
2022-10-14T22:10:52.377Z,8.57
2022-10-14T22:13:20.045Z,8.64
2022-10-14T22:15:47.795Z,8.69
2022-10-14T22:18:15.400Z,8.69
2022-10-14T22:20:43.144Z,8.64
2022-10-14T22:23:10.829Z,8.58
2022-10-14T22:25:38.557Z,8.52
2022-10-14T22:28:06.657Z,8.50
2022-10-14T22:30:35.200Z,8.52
2022-10-14T22:33:03.049Z,8.57
2022-10-14T22:35:30.825Z,8.60
2022-10-14T22:37:58.835Z,8.64
2022-10-14T22:40:26.493Z,8.67
2022-10-14T22:42:55.259Z,8.63
2022-10-14T22:45:22.860Z,8.54
2022-10-14T22:47:50.511Z,8.46
2022-10-14T22:50:18.491Z,8.36
2022-10-14T22:52:46.108Z,8.34
2022-10-14T22:55:13.777Z,8.34
2022-10-14T22:57:41.502Z,8.35
2022-10-14T23:00:09.673Z,8.29
2022-10-14T23:02:37.352Z,8.24
2022-10-14T23:05:05.336Z,8.17
2022-10-14T23:07:33.363Z,8.12
2022-10-14T23:10:01.093Z,8.08
2022-10-14T23:12:28.792Z,8.00
2022-10-14T23:14:56.921Z,7.93
2022-10-14T23:17:24.549Z,7.88
2022-10-14T23:19:52.180Z,7.83
2022-10-14T23:22:19.964Z,7.78
2022-10-14T23:24:47.735Z,7.72
2022-10-14T23:27:15.354Z,7.70
2022-10-14T23:29:42.978Z,7.68
2022-10-14T23:32:11.157Z,7.68
2022-10-14T23:34:38.878Z,7.63
2022-10-14T23:37:06.510Z,7.63
2022-10-14T23:39:34.162Z,7.65
2022-10-14T23:42:01.906Z,7.70
2022-10-14T23:44:29.650Z,7.73
2022-10-14T23:46:57.280Z,7.74
2022-10-14T23:49:26.270Z,7.76
2022-10-14T23:51:55.536Z,7.77
2022-10-14T23:54:23.655Z,7.72
2022-10-14T23:56:51.796Z,7.71
2022-10-14T23:59:19.470Z,7.70
